Time;durP1;ratioP1;P1;durP2;ratioP2;P2;SDS_P1;SDS_P2;PMS_P1;PMS_P2;Temp;Humidity;BMP_temperature;BMP_pressure;BME280_temperature;BME280_humidity;BME280_pressure;Samples;Min_cycle;Max_cycle;Signal;HPM_P1;HPM_P2
2021/03/25 00:02:08;;;;;;;93.92;45.92;;;;;;;4.19;74.60;100737.02;2111323;83;21183;-75
2021/03/25 00:05:12;;;;;;;93.55;45.55;;;;;;;4.20;74.56;100742.66;2115162;83;21100;-75
2021/03/25 00:08:19;;;;;;;91.22;45.05;;;;;;;4.21;74.51;100742.18;2112873;83;21109;-75
2021/03/25 00:11:20;;;;;;;87.47;43.90;;;;;;;4.21;74.63;100740.87;2110237;83;21090;-75
2021/03/25 00:14:23;;;;;;;94.95;46.80;;;;;;;4.19;74.65;100737.02;2112318;83;21140;-75
2021/03/25 00:17:24;;;;;;;93.05;46.45;;;;;;;4.16;74.66;100735.94;2095580;83;21516;-75
2021/03/25 00:20:26;;;;;;;92.88;45.80;;;;;;;4.18;74.71;100737.98;2067930;84;21172;-75
2021/03/25 00:23:28;;;;;;;92.40;45.78;;;;;;;4.21;74.69;100739.08;2068914;84;21849;-75
2021/03/25 00:26:29;;;;;;;93.70;47.50;;;;;;;4.20;74.62;100730.84;2069336;83;21146;-75
2021/03/25 00:29:30;;;;;;;103.02;47.65;;;;;;;4.17;74.66;100728.44;2076496;84;21066;-75
2021/03/25 00:32:33;;;;;;;98.65;46.73;;;;;;;4.14;74.69;100731.73;2068427;84;21640;-75
2021/03/25 00:35:35;;;;;;;94.85;46.55;;;;;;;4.11;74.73;100729.33;2068678;84;21639;-75
2021/03/25 00:38:36;;;;;;;95.35;46.20;;;;;;;4.10;74.78;100715.84;2068869;83;21151;-76
2021/03/25 00:41:38;;;;;;;94.80;46.20;;;;;;;4.09;74.82;100714.19;2069570;84;21133;-75
2021/03/25 00:44:39;;;;;;;94.83;47.60;;;;;;;4.07;74.79;100710.34;2043036;84;21097;-75
2021/03/25 00:47:42;;;;;;;95.05;45.15;;;;;;;4.08;74.79;100709.86;2063587;84;21196;-75
2021/03/25 00:50:49;;;;;;;93.62;46.77;;;;;;;4.08;74.75;100715.11;2068001;84;21132;-75
2021/03/25 00:53:50;;;;;;;95.75;46.15;;;;;;;4.07;74.82;100705.09;2067202;84;21614;-75
2021/03/25 00:56:52;;;;;;;106.32;47.78;;;;;;;4.05;74.86;100706.97;2070721;84;21238;-75
2021/03/25 00:59:53;;;;;;;101.45;47.48;;;;;;;4.03;74.91;100704.48;2064792;84;21612;-75
2021/03/25 01:02:55;;;;;;;93.22;49.05;;;;;;;4.04;74.92;100694.33;2104853;83;21253;-75
2021/03/25 01:05:57;;;;;;;92.08;46.63;;;;;;;4.09;74.95;100694.48;2102512;83;21201;-75
2021/03/25 01:08:58;;;;;;;98.45;45.25;;;;;;;4.14;74.96;100694.52;2103202;83;21503;-75
2021/03/25 01:12:00;;;;;;;98.55;46.30;;;;;;;4.19;74.88;100699.41;2103648;83;21156;-75
2021/03/25 01:15:02;;;;;;;94.95;47.08;;;;;;;4.23;74.85;100691.69;2098353;83;21164;-75
2021/03/25 01:18:06;;;;;;;90.03;44.93;;;;;;;4.29;74.82;100696.49;2109715;82;21158;-76
2021/03/25 01:21:08;;;;;;;96.82;47.75;;;;;;;4.38;74.78;100691.04;2128368;81;21139;-75
2021/03/25 01:24:10;;;;;;;104.60;47.98;;;;;;;4.44;74.68;100688.78;2159497;81;21729;-75
2021/03/25 01:27:12;;;;;;;95.92;49.10;;;;;;;4.40;74.40;100690.45;2154279;81;21236;-75
2021/03/25 01:30:17;;;;;;;94.15;46.23;;;;;;;4.35;74.43;100689.47;2157705;81;21223;-75
2021/03/25 01:33:21;;;;;;;96.40;49.18;;;;;;;4.31;74.43;100690.66;2154432;81;21563;-75
2021/03/25 01:36:23;;;;;;;99.70;46.63;;;;;;;4.27;74.56;100686.56;2137648;81;21108;-75
2021/03/25 01:39:25;;;;;;;95.75;49.35;;;;;;;4.25;74.55;100684.52;2154324;80;21599;-75
2021/03/25 01:42:29;;;;;;;95.60;46.95;;;;;;;4.15;74.57;100685.67;2153026;80;21198;-75
2021/03/25 01:45:43;;;;;;;101.22;47.55;;;;;;;4.15;74.68;100686.98;2156823;81;21191;-75
2021/03/25 01:48:51;;;;;;;103.10;51.10;;;;;;;4.15;74.70;100693.55;2156633;81;21171;-75
2021/03/25 01:52:08;;;;;;;100.25;49.08;;;;;;;4.13;74.74;100684.11;2154092;80;21116;-75
2021/03/25 01:55:22;;;;;;;99.10;47.78;;;;;;;4.18;74.92;100687.24;2149294;80;21286;-74
2021/03/25 01:58:59;;;;;;;98.87;50.12;;;;;;;4.22;74.80;100675.09;2154508;81;21219;-74
2021/03/25 02:02:21;;;;;;;102.20;50.33;;;;;;;4.24;74.76;100672.34;2157870;80;21118;-74
2021/03/25 02:05:54;;;;;;;106.00;52.40;;;;;;;4.31;74.78;100677.97;2124223;81;21084;-74
2021/03/25 02:09:23;;;;;;;103.42;52.88;;;;;;;4.35;74.75;100681.59;2150517;81;21225;-74
2021/03/25 02:13:04;;;;;;;102.15;48.50;;;;;;;4.39;74.69;100678.25;2154235;81;21552;-73
2021/03/25 02:16:16;;;;;;;97.75;47.88;;;;;;;4.32;74.61;100671.79;2158799;80;21588;-74
2021/03/25 02:19:47;;;;;;;95.45;46.77;;;;;;;4.33;74.79;100671.66;2075983;80;21582;-73
2021/03/25 02:23:33;;;;;;;112.12;55.33;;;;;;;4.39;74.70;100676.94;2110184;82;21610;-74
2021/03/25 02:27:10;;;;;;;99.55;50.58;;;;;;;4.43;74.66;100667.89;2153887;81;21687;-75
2021/03/25 02:30:29;;;;;;;101.40;48.98;;;;;;;4.47;74.58;100672.78;2151310;81;21144;-74
2021/03/25 02:33:34;;;;;;;101.45;48.68;;;;;;;4.52;74.44;100669.00;2143703;80;21996;-74
2021/03/25 02:36:51;;;;;;;97.50;48.20;;;;;;;4.44;74.30;100669.56;2128957;81;21151;-75
2021/03/25 02:40:18;;;;;;;95.95;46.15;;;;;;;4.36;74.33;100668.80;2163051;80;21211;-74
2021/03/25 02:43:45;;;;;;;90.50;45.52;;;;;;;4.30;74.40;100660.06;2170874;80;21148;-74
2021/03/25 02:46:54;;;;;;;94.07;46.05;;;;;;;4.19;74.45;100658.22;2164332;80;21220;-74
2021/03/25 02:50:20;;;;;;;95.33;45.97;;;;;;;4.17;74.58;100665.40;2169521;80;21190;-74
2021/03/25 02:53:36;;;;;;;95.15;45.58;;;;;;;4.15;74.56;100662.52;2162624;80;21444;-74
2021/03/25 02:56:44;;;;;;;87.05;44.65;;;;;;;4.10;74.64;100651.50;2157315;80;21742;-75
2021/03/25 02:59:47;;;;;;;93.60;46.20;;;;;;;4.09;74.70;100650.67;2155774;80;21151;-74
2021/03/25 03:02:56;;;;;;;105.70;50.92;;;;;;;4.06;74.88;100644.33;2084862;82;21160;-74
2021/03/25 03:06:10;;;;;;;98.58;47.62;;;;;;;4.02;75.01;100652.05;2113587;80;21572;-73
2021/03/25 03:09:19;;;;;;;91.53;45.12;;;;;;;4.03;75.06;100644.56;2104179;82;21100;-74
2021/03/25 03:12:25;;;;;;;92.08;45.78;;;;;;;4.07;75.08;100653.87;2132664;82;21643;-74
2021/03/25 03:15:35;;;;;;;98.58;47.05;;;;;;;4.11;75.10;100645.29;2132538;82;21175;-74
2021/03/25 03:18:58;;;;;;;92.88;45.12;;;;;;;4.12;74.94;100639.11;2155910;81;21171;-74
2021/03/25 03:22:05;;;;;;;95.47;47.25;;;;;;;4.13;75.04;100642.08;2147942;80;21177;-74
2021/03/25 03:25:27;;;;;;;92.67;44.53;;;;;;;4.12;75.15;100641.73;2151916;81;21191;-74
2021/03/25 03:28:37;;;;;;;91.65;43.92;;;;;;;4.12;75.12;100643.05;2130164;81;21144;-74
2021/03/25 03:31:45;;;;;;;89.85;42.33;;;;;;;4.08;75.18;100635.02;2156163;81;21143;-74
2021/03/25 03:34:50;;;;;;;90.97;44.25;;;;;;;3.99;75.32;100626.85;2147394;80;21200;-74
2021/03/25 03:37:59;;;;;;;85.65;43.90;;;;;;;4.03;75.49;100639.30;2152442;80;21142;-74
2021/03/25 03:41:02;;;;;;;90.38;45.08;;;;;;;4.08;75.56;100635.84;2152305;80;21159;-74
2021/03/25 03:44:08;;;;;;;90.42;44.65;;;;;;;4.14;75.50;100639.81;2149014;81;21177;-74
2021/03/25 03:47:13;;;;;;;89.00;42.40;;;;;;;4.10;75.43;100640.52;2168368;80;21193;-74
2021/03/25 03:50:25;;;;;;;85.50;43.90;;;;;;;4.12;75.60;100634.69;2128797;81;21536;-74
2021/03/25 03:53:28;;;;;;;91.45;45.50;;;;;;;4.17;75.57;100630.42;2160365;81;22016;-74
2021/03/25 03:56:51;;;;;;;83.87;43.10;;;;;;;4.17;75.60;100632.56;2157614;81;21179;-74
2021/03/25 04:00:11;;;;;;;83.82;43.40;;;;;;;4.23;75.70;100635.22;2146120;81;21111;-74
2021/03/25 04:03:40;;;;;;;83.10;42.73;;;;;;;4.21;75.55;100639.25;2129882;81;21270;-73
2021/03/25 04:06:46;;;;;;;87.12;46.08;;;;;;;4.14;75.62;100639.81;2097283;83;21663;-74
2021/03/25 04:10:03;;;;;;;91.10;45.88;;;;;;;4.12;75.73;100633.37;2141550;81;21150;-74
2021/03/25 04:13:11;;;;;;;90.22;43.20;;;;;;;4.06;75.56;100631.20;2111773;80;21138;-73
2021/03/25 04:16:15;;;;;;;88.97;45.05;;;;;;;3.91;75.83;100637.07;2143139;80;21099;-74
2021/03/25 04:19:34;;;;;;;91.45;44.65;;;;;;;3.77;75.93;100646.42;2143933;80;21567;-74
2021/03/25 04:22:54;;;;;;;91.55;44.58;;;;;;;3.79;76.23;100640.11;2129351;81;21595;-75
2021/03/25 04:26:22;;;;;;;91.70;44.88;;;;;;;3.82;76.25;100642.99;2086994;83;21179;-75
2021/03/25 04:29:32;;;;;;;89.10;44.23;;;;;;;3.92;76.35;100640.08;2105004;81;21161;-74
2021/03/25 04:32:34;;;;;;;89.20;45.38;;;;;;;3.96;76.17;100638.89;2138179;81;22550;-74
2021/03/25 04:35:36;;;;;;;90.30;44.93;;;;;;;3.97;76.22;100641.04;2115969;80;21112;-74
2021/03/25 04:38:40;;;;;;;90.40;45.38;;;;;;;3.99;76.17;100643.92;2130266;80;21076;-74
2021/03/25 04:41:44;;;;;;;86.87;45.33;;;;;;;4.01;76.17;100645.13;2149499;81;21074;-74
2021/03/25 04:44:53;;;;;;;87.00;43.10;;;;;;;4.06;76.21;100649.59;2145176;80;21194;-75
2021/03/25 04:47:59;;;;;;;87.97;44.77;;;;;;;4.11;76.25;100641.34;2136975;81;21151;-74
2021/03/25 04:51:08;;;;;;;82.47;43.35;;;;;;;4.09;76.13;100644.59;2131119;81;21127;-75
2021/03/25 04:54:35;;;;;;;89.65;45.00;;;;;;;4.07;75.98;100642.06;2133474;81;21129;-75
2021/03/25 04:57:48;;;;;;;81.20;43.70;;;;;;;4.07;76.08;100647.80;2129933;80;21135;-75
2021/03/25 05:00:50;;;;;;;84.05;42.03;;;;;;;4.07;76.10;100647.31;2121666;81;21532;-75
2021/03/25 05:03:58;;;;;;;88.20;43.50;;;;;;;4.11;76.10;100643.97;2136758;81;21196;-75
2021/03/25 05:07:02;;;;;;;83.70;42.38;;;;;;;4.06;76.13;100649.59;2141418;81;21101;-75
2021/03/25 05:10:12;;;;;;;88.10;43.95;;;;;;;4.08;76.17;100653.39;2137603;81;21114;-73
2021/03/25 05:13:27;;;;;;;89.75;42.95;;;;;;;4.03;76.14;100648.50;2136139;81;21152;-73
2021/03/25 05:17:02;;;;;;;86.02;44.93;;;;;;;4.02;76.23;100654.20;2117326;81;21131;-74
2021/03/25 05:20:27;;;;;;;83.20;42.70;;;;;;;4.01;76.25;100655.16;2158064;81;21222;-73
2021/03/25 05:23:33;;;;;;;83.72;43.42;;;;;;;4.00;76.39;100658.75;2152257;80;21116;-74
2021/03/25 05:26:48;;;;;;;91.55;46.83;;;;;;;3.97;76.33;100651.09;2153770;80;21116;-72
2021/03/25 05:29:53;;;;;;;90.22;43.87;;;;;;;3.96;76.50;100661.21;2152998;80;21555;-73
2021/03/25 05:33:02;;;;;;;81.95;42.03;;;;;;;3.89;76.38;100657.37;2163617;81;21207;-73
2021/03/25 05:36:10;;;;;;;83.27;41.80;;;;;;;3.95;76.63;100654.30;2158329;81;21088;-75
2021/03/25 05:39:12;;;;;;;84.28;42.45;;;;;;;3.97;76.62;100654.17;2156598;81;21514;-75
2021/03/25 05:42:48;;;;;;;88.45;44.75;;;;;;;4.02;76.60;100652.88;2154249;80;21516;-74
2021/03/25 05:46:31;;;;;;;90.40;42.20;;;;;;;4.16;76.61;100660.24;2153939;81;21085;-72
2021/03/25 05:49:44;;;;;;;75.30;40.20;;;;;;;4.29;76.49;100664.14;2151283;81;21261;-79
2021/03/25 05:53:19;;;;;;;88.40;42.60;;;;;;;4.43;76.44;100666.09;2155529;81;22550;-77
2021/03/25 05:56:28;;;;;;;84.87;43.08;;;;;;;4.56;76.33;100662.55;2142772;81;21167;-74
2021/03/25 05:59:38;;;;;;;86.80;43.50;;;;;;;4.72;76.36;100657.34;2156392;80;21350;-77
2021/03/25 06:02:54;;;;;;;86.57;45.60;;;;;;;5.06;76.38;100666.59;2160787;80;21127;-72
2021/03/25 06:05:59;;;;;;;85.57;44.88;;;;;;;5.49;76.11;100667.23;2159624;80;21155;-72
2021/03/25 06:09:34;;;;;;;89.32;47.15;;;;;;;5.92;75.81;100662.98;2152227;81;21128;-71
2021/03/25 06:13:02;;;;;;;84.97;45.40;;;;;;;6.29;75.22;100668.27;2165224;80;21140;-76
2021/03/25 06:16:27;;;;;;;83.60;45.63;;;;;;;6.65;74.80;100671.48;2163072;80;21614;-70
2021/03/25 06:19:47;;;;;;;88.03;48.20;;;;;;;6.97;74.30;100670.56;2161735;80;21097;-70
2021/03/25 06:23:02;;;;;;;89.13;48.38;;;;;;;7.06;73.39;100671.09;2157379;80;21142;-69
2021/03/25 06:26:41;;;;;;;89.77;49.20;;;;;;;7.29;73.41;100680.17;2162513;80;21250;-71
2021/03/25 06:29:53;;;;;;;92.37;49.20;;;;;;;7.39;72.69;100681.06;2160524;80;21163;-71
2021/03/25 06:33:27;;;;;;;89.83;49.63;;;;;;;7.78;72.43;100678.08;2120599;82;21226;-71
2021/03/25 06:36:47;;;;;;;87.08;48.90;;;;;;;7.92;71.33;100682.64;2121706;82;21330;-72
2021/03/25 06:40:15;;;;;;;89.75;50.20;;;;;;;7.72;70.21;100679.11;2035859;83;21526;-74
2021/03/25 06:43:34;;;;;;;78.95;46.73;;;;;;;7.67;70.06;100681.31;2103149;83;21116;-71
2021/03/25 06:46:42;;;;;;;82.15;48.33;;;;;;;7.62;70.28;100686.49;2108032;82;21549;-72
2021/03/25 06:49:53;;;;;;;82.12;46.23;;;;;;;7.76;70.54;100683.14;2111103;83;21136;-71
2021/03/25 06:53:12;;;;;;;77.60;45.07;;;;;;;8.02;70.37;100688.27;2110902;82;21636;-75
2021/03/25 06:56:24;;;;;;;74.12;44.38;;;;;;;8.29;70.06;100692.08;2105261;82;21645;-73
2021/03/25 06:59:33;;;;;;;82.72;48.10;;;;;;;8.57;68.52;100689.61;2108367;82;21122;-71
2021/03/25 07:02:37;;;;;;;74.47;43.83;;;;;;;8.71;69.79;100693.98;2109138;82;21423;-72
2021/03/25 07:05:39;;;;;;;80.65;45.67;;;;;;;9.25;69.46;100698.77;2089509;83;21232;-75
2021/03/25 07:08:41;;;;;;;72.10;43.78;;;;;;;9.45;67.33;100704.33;2097910;81;21135;-72
2021/03/25 07:11:43;;;;;;;76.12;43.75;;;;;;;9.60;67.78;100697.59;2127655;81;21156;-73
2021/03/25 07:14:47;;;;;;;74.65;45.48;;;;;;;9.77;67.01;100695.98;2159249;81;21125;-72
2021/03/25 07:17:50;;;;;;;78.05;45.73;;;;;;;9.99;65.54;100693.89;2156591;80;21153;-72
2021/03/25 07:21:19;;;;;;;79.67;45.12;;;;;;;10.14;66.18;100687.11;2127868;81;21679;-74
2021/03/25 07:24:32;;;;;;;75.85;45.83;;;;;;;10.46;65.57;100691.09;2089520;83;21208;-72
2021/03/25 07:27:35;;;;;;;76.40;46.23;;;;;;;10.81;65.65;100690.70;2143951;81;21498;-74
2021/03/25 07:30:45;;;;;;;78.70;46.83;;;;;;;11.12;64.34;100689.30;2122847;81;21641;-73
2021/03/25 07:33:46;;;;;;;90.90;51.55;;;;;;;11.15;64.19;100692.96;2108717;82;22670;-72
2021/03/25 07:36:54;;;;;;;91.57;53.65;;;;;;;11.54;64.41;100692.98;2120948;82;21132;-76
2021/03/25 07:40:00;;;;;;;95.80;57.17;;;;;;;11.66;63.72;100692.56;2121513;82;21197;-72
2021/03/25 07:43:22;;;;;;;100.20;61.33;;;;;;;11.86;63.02;100697.15;2121019;82;21176;-74
2021/03/25 07:46:38;;;;;;;100.97;62.35;;;;;;;12.11;62.98;100695.40;2104357;83;21552;-73
2021/03/25 07:49:39;;;;;;;109.63;66.47;;;;;;;12.30;61.89;100690.77;2112282;82;21611;-76
2021/03/25 07:52:41;;;;;;;109.72;66.70;;;;;;;12.54;61.60;100690.80;2125967;81;21168;-72
2021/03/25 07:55:42;;;;;;;110.35;67.05;;;;;;;12.60;61.46;100688.48;2118331;81;21145;-73
2021/03/25 07:58:47;;;;;;;100.90;64.77;;;;;;;12.78;61.22;100682.00;2116752;81;21118;-73
2021/03/25 08:01:49;;;;;;;87.70;58.15;;;;;;;13.18;60.85;100684.27;2123955;81;21151;-71
2021/03/25 08:04:50;;;;;;;90.53;58.10;;;;;;;13.61;60.79;100677.34;2137090;81;22001;-78
2021/03/25 08:07:57;;;;;;;87.97;56.00;;;;;;;13.96;59.13;100683.16;2111357;83;21129;-71
2021/03/25 08:11:20;;;;;;;81.25;52.65;;;;;;;14.00;59.58;100683.16;2102361;82;21183;-75
2021/03/25 08:14:32;;;;;;;84.03;55.65;;;;;;;14.23;58.93;100676.00;2108560;82;21515;-71
2021/03/25 08:18:06;;;;;;;76.57;50.45;;;;;;;14.54;59.07;100678.64;2105812;82;21096;-70
2021/03/25 08:21:51;;;;;;;81.50;50.38;;;;;;;14.72;58.22;100677.49;1995189;87;21291;-72
2021/03/25 08:25:39;;;;;;;69.62;47.55;;;;;;;14.93;57.94;100674.15;2010525;83;21248;-73
2021/03/25 08:28:57;;;;;;;72.20;49.67;;;;;;;15.26;56.75;100670.64;2108631;82;21175;-74
2021/03/25 08:32:13;;;;;;;75.12;48.58;;;;;;;15.31;56.49;100667.40;2109349;83;21179;-73
2021/03/25 08:35:38;;;;;;;74.65;48.87;;;;;;;15.35;56.30;100667.37;2104426;82;21191;-76
2021/03/25 08:39:06;;;;;;;73.80;48.13;;;;;;;15.49;55.94;100672.39;2113542;82;21172;-75
2021/03/25 08:42:38;;;;;;;68.02;46.58;;;;;;;15.63;55.99;100667.02;2043037;84;21101;-81
2021/03/25 08:45:59;;;;;;;72.45;47.80;;;;;;;15.86;55.01;100667.44;2052091;83;21190;-75
2021/03/25 08:49:21;;;;;;;67.37;46.83;;;;;;;15.76;54.51;100668.22;2128472;82;21125;-76
2021/03/25 08:52:25;;;;;;;69.37;47.35;;;;;;;15.81;54.68;100668.50;2131136;81;21542;-74
2021/03/25 08:55:35;;;;;;;66.10;47.05;;;;;;;15.97;54.38;100667.45;2109488;81;21673;-74
2021/03/25 08:58:39;;;;;;;61.77;44.53;;;;;;;16.12;53.84;100666.89;2111162;82;21129;-76
2021/03/25 09:02:02;;;;;;;63.50;45.78;;;;;;;16.28;52.46;100663.16;2096512;81;21859;-79
2021/03/25 09:05:41;;;;;;;65.60;44.03;;;;;;;16.25;52.98;100659.52;2097828;83;21140;-75
2021/03/25 09:08:45;;;;;;;64.72;46.23;;;;;;;16.52;52.43;100659.25;2101296;81;21103;-79
2021/03/25 09:11:47;;;;;;;69.45;46.35;;;;;;;16.57;52.33;100651.47;2098149;83;21179;-76
2021/03/25 09:14:50;;;;;;;67.75;45.67;;;;;;;16.75;50.48;100646.96;2098900;83;21120;-74
2021/03/25 09:17:59;;;;;;;66.87;47.23;;;;;;;16.70;51.25;100648.08;2103468;82;21116;-77
2021/03/25 09:21:14;;;;;;;71.07;48.73;;;;;;;16.61;51.27;100650.56;2112844;82;21186;-77
2021/03/25 09:24:16;;;;;;;64.85;45.88;;;;;;;16.71;51.12;100647.05;2120838;82;21196;-78
2021/03/25 09:27:23;;;;;;;64.25;45.52;;;;;;;16.80;49.81;100644.05;2116264;82;21145;-76
2021/03/25 09:30:55;;;;;;;67.03;46.48;;;;;;;16.69;50.32;100639.19;2077359;83;21109;-76
2021/03/25 09:34:00;;;;;;;70.15;49.08;;;;;;;16.68;49.34;100645.58;2133113;80;21149;-76
2021/03/25 09:37:19;;;;;;;66.55;47.53;;;;;;;16.74;50.25;100652.02;2134942;81;21624;-77
2021/03/25 09:40:47;;;;;;;69.35;47.62;;;;;;;17.12;50.10;100649.86;2138864;81;21599;-80
2021/03/25 09:43:50;;;;;;;61.85;43.70;;;;;;;17.41;49.25;100653.32;2137474;81;21187;-78
2021/03/25 09:47:03;;;;;;;64.22;44.03;;;;;;;17.65;48.89;100649.28;2119755;81;21096;-77
2021/03/25 09:50:21;;;;;;;67.03;46.48;;;;;;;17.81;48.57;100645.47;2124702;81;21147;-81
2021/03/25 09:53:23;;;;;;;69.03;47.50;;;;;;;17.86;48.00;100643.83;2143981;81;21601;-74
2021/03/25 09:56:31;;;;;;;67.53;45.60;;;;;;;17.77;47.38;100642.85;2107959;81;21230;-77
2021/03/25 09:59:53;;;;;;;63.17;44.40;;;;;;;17.66;47.56;100645.08;2144262;81;21168;-75
2021/03/25 10:03:01;;;;;;;62.78;46.48;;;;;;;17.69;47.42;100644.67;2153628;81;21219;-80
2021/03/25 10:06:03;;;;;;;63.78;45.23;;;;;;;17.65;47.03;100643.92;2154948;81;21143;-80
2021/03/25 10:09:05;;;;;;;66.55;47.38;;;;;;;17.62;46.96;100640.30;2151232;81;21161;-80
2021/03/25 10:12:11;;;;;;;65.62;46.92;;;;;;;17.64;45.79;100642.27;2148558;80;21192;-77
2021/03/25 10:15:42;;;;;;;62.13;44.55;;;;;;;17.54;46.40;100639.12;2155507;81;22381;-76
2021/03/25 10:18:49;;;;;;;66.57;46.18;;;;;;;17.38;46.65;100641.65;2152164;81;21152;-82
2021/03/25 10:22:02;;;;;;;65.35;46.92;;;;;;;17.10;46.12;100633.65;2114500;81;21153;-80
2021/03/25 10:25:07;;;;;;;68.90;47.53;;;;;;;17.02;45.03;100623.38;2161925;81;21183;-79
2021/03/25 10:28:13;;;;;;;63.98;45.75;;;;;;;16.75;46.17;100630.40;2166687;81;21504;-79
2021/03/25 10:31:48;;;;;;;63.70;43.75;;;;;;;16.83;46.49;100626.75;2157642;81;21116;-73
2021/03/25 10:34:54;;;;;;;61.45;44.42;;;;;;;16.79;45.97;100622.83;2156259;81;21096;-77
2021/03/25 10:38:01;;;;;;;62.85;44.55;;;;;;;16.54;46.17;100617.85;2154015;81;21159;-73
2021/03/25 10:41:04;;;;;;;66.02;45.75;;;;;;;16.57;46.32;100622.00;2155724;80;21171;-74
2021/03/25 10:44:32;;;;;;;67.15;45.73;;;;;;;16.56;46.49;100621.17;2152905;81;21212;-74
2021/03/25 10:47:34;;;;;;;64.03;46.40;;;;;;;16.48;46.33;100626.67;2159053;81;21197;-74
2021/03/25 10:50:50;;;;;;;69.07;46.90;;;;;;;16.49;46.41;100619.45;2157495;81;21151;-73
2021/03/25 10:53:59;;;;;;;62.05;44.10;;;;;;;16.50;46.35;100613.92;2156008;81;21119;-73
2021/03/25 10:57:29;;;;;;;65.30;46.55;;;;;;;16.10;45.83;100618.06;2154031;81;21619;-73
2021/03/25 11:00:37;;;;;;;66.70;47.17;;;;;;;15.93;46.69;100614.80;2153844;81;21182;-73
2021/03/25 11:03:40;;;;;;;68.20;47.58;;;;;;;15.99;46.55;100614.03;2156456;81;21148;-72
2021/03/25 11:06:42;;;;;;;64.27;45.83;;;;;;;16.11;46.20;100612.53;2164527;80;21120;-71
2021/03/25 11:10:02;;;;;;;70.17;47.08;;;;;;;16.14;46.92;100614.00;2153849;81;21081;-72
2021/03/25 11:13:09;;;;;;;67.90;45.63;;;;;;;16.13;46.63;100610.50;2157707;81;21124;-71
2021/03/25 11:16:20;;;;;;;65.20;45.23;;;;;;;16.16;46.84;100608.44;2155753;80;21188;-71
2021/03/25 11:19:24;;;;;;;60.55;42.00;;;;;;;16.29;46.99;100603.22;2151360;80;21136;-71
2021/03/25 11:22:32;;;;;;;65.20;46.13;;;;;;;16.33;46.49;100602.65;2150641;81;21183;-72
2021/03/25 11:25:35;;;;;;;65.83;45.55;;;;;;;16.22;46.28;100606.33;2138682;81;21095;-72
2021/03/25 11:28:38;;;;;;;64.03;45.23;;;;;;;16.06;46.41;100595.39;2120937;81;21105;-71
2021/03/25 11:31:40;;;;;;;64.30;47.08;;;;;;;15.94;46.59;100600.42;2144331;81;21153;-72
2021/03/25 11:34:45;;;;;;;67.90;42.43;;;;;;;15.88;46.75;100595.31;2145900;81;21177;-74
2021/03/25 11:37:46;;;;;;;61.73;42.88;;;;;;;15.96;46.83;100591.67;2151255;81;21098;-76
2021/03/25 11:40:48;;;;;;;67.53;45.23;;;;;;;15.95;46.51;100590.54;2145493;81;21172;-72
2021/03/25 11:43:57;;;;;;;64.05;43.33;;;;;;;16.07;46.45;100592.50;2137023;81;21180;-77
2021/03/25 11:47:25;;;;;;;70.85;45.00;;;;;;;16.16;45.95;100589.18;2123503;81;21614;-73
2021/03/25 11:50:32;;;;;;;67.60;44.50;;;;;;;16.21;46.48;100593.97;2082355;83;21656;-72
2021/03/25 11:53:39;;;;;;;68.30;46.88;;;;;;;16.26;45.95;100587.02;2053278;84;21282;-71
2021/03/25 11:56:46;;;;;;;64.67;45.30;;;;;;;16.28;46.34;100587.66;2121581;82;21116;-72
2021/03/25 11:59:47;;;;;;;65.00;45.55;;;;;;;16.36;46.17;100587.53;2121411;82;21200;-72
2021/03/25 12:02:52;;;;;;;63.42;43.58;;;;;;;16.31;45.81;100583.27;2118134;82;21144;-73
2021/03/25 12:05:54;;;;;;;63.83;44.73;;;;;;;16.25;45.77;100576.01;2127010;82;21618;-73
2021/03/25 12:09:15;;;;;;;68.05;46.02;;;;;;;16.38;45.96;100571.77;2120362;82;21079;-73
2021/03/25 12:12:16;;;;;;;63.08;45.58;;;;;;;16.42;45.47;100567.19;2115406;82;21603;-72
2021/03/25 12:15:19;;;;;;;68.92;47.30;;;;;;;16.33;45.66;100575.02;2122182;82;21579;-73
2021/03/25 12:18:38;;;;;;;69.90;48.08;;;;;;;16.10;45.38;100570.70;2122329;82;21143;-72
2021/03/25 12:21:42;;;;;;;66.82;46.10;;;;;;;15.98;45.35;100566.89;2128068;82;21124;-76
2021/03/25 12:24:44;;;;;;;65.00;44.67;;;;;;;15.95;45.50;100557.91;2125560;82;21140;-74
2021/03/25 12:27:45;;;;;;;72.30;47.48;;;;;;;15.92;45.68;100558.30;2126738;82;21188;-72
2021/03/25 12:30:48;;;;;;;66.80;46.28;;;;;;;15.87;45.52;100550.83;2133451;82;21147;-73
2021/03/25 12:33:50;;;;;;;65.25;44.30;;;;;;;15.94;45.50;100553.59;2124250;82;21183;-73
2021/03/25 12:36:51;;;;;;;64.85;45.73;;;;;;;15.95;45.76;100551.73;2101874;82;21172;-71
2021/03/25 12:39:53;;;;;;;69.40;46.50;;;;;;;15.95;46.25;100550.39;2126030;82;21551;-75
2021/03/25 12:42:56;;;;;;;67.97;44.18;;;;;;;16.01;45.59;100547.77;2125242;82;21102;-72
2021/03/25 12:46:05;;;;;;;71.85;47.62;;;;;;;16.02;45.31;100549.93;2127182;81;21192;-73
2021/03/25 12:49:09;;;;;;;60.50;43.75;;;;;;;15.96;45.75;100546.17;2127650;82;21196;-73
2021/03/25 12:52:10;;;;;;;71.10;46.58;;;;;;;16.01;45.95;100541.08;2128509;82;21120;-72
2021/03/25 12:55:14;;;;;;;65.20;45.63;;;;;;;16.06;45.64;100535.16;2124114;82;21113;-71
2021/03/25 12:58:37;;;;;;;62.73;43.78;;;;;;;16.07;45.79;100530.94;2128577;82;21139;-70
2021/03/25 13:01:40;;;;;;;68.72;45.73;;;;;;;16.09;45.69;100528.91;2124059;82;21104;-73
2021/03/25 13:04:41;;;;;;;71.35;46.15;;;;;;;16.11;45.56;100528.72;2086759;83;21179;-72
2021/03/25 13:07:43;;;;;;;70.70;46.85;;;;;;;15.97;45.81;100522.94;2053493;85;21179;-74
2021/03/25 13:10:44;;;;;;;68.90;45.65;;;;;;;15.89;45.73;100522.03;2045972;84;22423;-75
2021/03/25 13:13:46;;;;;;;71.50;46.98;;;;;;;15.84;45.88;100516.42;2095633;83;21176;-76
2021/03/25 13:16:48;;;;;;;69.03;45.65;;;;;;;15.85;45.61;100521.27;2112295;82;21670;-72
2021/03/25 13:19:49;;;;;;;70.47;46.70;;;;;;;15.86;45.11;100518.41;2105017;82;21082;-74
2021/03/25 13:22:52;;;;;;;73.60;46.95;;;;;;;15.84;45.57;100516.42;2079899;82;21189;-73
2021/03/25 13:25:53;;;;;;;73.40;49.08;;;;;;;15.83;45.52;100515.30;2116960;82;21151;-72
2021/03/25 13:28:55;;;;;;;70.45;48.85;;;;;;;15.86;45.70;100515.73;2120298;82;21080;-72
2021/03/25 13:31:56;;;;;;;78.45;48.02;;;;;;;15.78;45.47;100503.00;2122652;82;21182;-72
2021/03/25 13:34:58;;;;;;;72.03;47.90;;;;;;;15.68;45.58;100500.63;2121524;82;21163;-72
2021/03/25 13:37:59;;;;;;;70.05;47.73;;;;;;;15.65;45.41;100501.83;2121683;81;21195;-72
2021/03/25 13:41:02;;;;;;;67.65;44.95;;;;;;;15.65;45.92;100496.48;2125015;82;21175;-72
2021/03/25 13:44:04;;;;;;;73.60;46.25;;;;;;;15.70;44.54;100495.92;2119839;82;21104;-73
2021/03/25 13:47:06;;;;;;;66.22;46.05;;;;;;;15.53;45.33;100496.64;2121745;82;21191;-72
2021/03/25 13:50:12;;;;;;;71.53;47.27;;;;;;;15.52;45.79;100490.98;2115591;81;21238;-73
2021/03/25 13:53:14;;;;;;;70.83;45.98;;;;;;;15.52;46.07;100493.66;2120948;82;21153;-73
2021/03/25 13:56:16;;;;;;;72.67;48.20;;;;;;;15.47;46.23;100490.72;2116477;82;21132;-73
2021/03/25 13:59:17;;;;;;;70.42;46.55;;;;;;;15.52;46.03;100492.33;2132260;82;21155;-73
2021/03/25 14:02:18;;;;;;;74.22;46.45;;;;;;;15.50;46.29;100486.33;2123427;82;21551;-73
2021/03/25 14:05:23;;;;;;;71.02;47.03;;;;;;;15.36;45.94;100490.70;2116954;82;21182;-74
2021/03/25 14:08:24;;;;;;;69.17;46.15;;;;;;;15.18;46.05;100487.12;2120027;82;21548;-73
2021/03/25 14:11:26;;;;;;;76.65;48.33;;;;;;;15.14;46.16;100492.50;2121992;82;21203;-74
2021/03/25 14:14:28;;;;;;;72.25;47.15;;;;;;;15.18;46.87;100488.97;2119184;82;21147;-73
2021/03/25 14:17:30;;;;;;;74.95;47.65;;;;;;;15.25;46.71;100489.34;2116563;82;21214;-73
2021/03/25 14:20:32;;;;;;;82.53;49.13;;;;;;;15.31;46.46;100485.60;2124342;82;21210;-73
2021/03/25 14:23:33;;;;;;;69.32;46.60;;;;;;;15.30;46.23;100486.11;2111041;83;21612;-74
2021/03/25 14:26:34;;;;;;;75.37;48.25;;;;;;;15.25;46.49;100480.50;2110078;83;21214;-73
2021/03/25 14:29:36;;;;;;;76.65;49.42;;;;;;;15.29;46.44;100485.81;2155562;80;21124;-73